createdAt,value
2023-10-09T00:00:01.169Z,84.2
2023-10-09T00:01:02.180Z,85.1
2023-10-09T00:02:01.173Z,86.2
2023-10-09T00:03:01.972Z,87.6
2023-10-09T00:04:01.231Z,88.2
2023-10-09T00:05:01.141Z,88.7
2023-10-09T00:06:01.261Z,89.1
2023-10-09T00:07:01.602Z,89.2
2023-10-09T00:08:01.449Z,88.7
2023-10-09T00:09:01.259Z,88.8
2023-10-09T00:10:01.257Z,89.3
2023-10-09T00:11:02.141Z,88.4
2023-10-09T00:12:01.547Z,89.3
2023-10-09T00:13:01.523Z,89.7
2023-10-09T00:14:01.180Z,89.7
2023-10-09T00:15:01.180Z,90.3
2023-10-09T00:16:05.515Z,91.0
2023-10-09T00:17:01.183Z,91.8
2023-10-09T00:18:01.638Z,91.6
2023-10-09T00:19:01.852Z,92.8
2023-10-09T00:20:01.432Z,92.5
2023-10-09T00:21:01.912Z,92.5
2023-10-09T00:22:01.476Z,92.1
2023-10-09T00:23:01.347Z,92.3
2023-10-09T00:24:01.186Z,92.3
2023-10-09T00:25:01.109Z,92.3
2023-10-09T00:26:01.524Z,92.3
2023-10-09T00:27:01.189Z,92.8
2023-10-09T00:28:01.529Z,93.3
2023-10-09T00:29:01.121Z,93.2
2023-10-09T00:30:01.178Z,92.6
2023-10-09T00:31:03.316Z,92.9
2023-10-09T00:32:01.168Z,93.0
2023-10-09T00:33:01.518Z,93.5
2023-10-09T00:34:01.728Z,94.1
2023-10-09T00:35:01.157Z,93.9
2023-10-09T00:36:03.478Z,93.6
2023-10-09T00:37:01.178Z,93.6
2023-10-09T00:38:01.480Z,93.4
2023-10-09T00:39:01.124Z,92.7
2023-10-09T00:40:01.208Z,93.0
2023-10-09T00:41:01.155Z,93.2
2023-10-09T00:42:01.477Z,93.3
2023-10-09T00:43:02.288Z,93.7
2023-10-09T00:44:01.172Z,93.7
2023-10-09T00:45:02.155Z,94.0
2023-10-09T00:46:02.393Z,94.2
2023-10-09T00:47:01.170Z,94.8
2023-10-09T00:48:01.264Z,95.0
2023-10-09T00:49:01.738Z,95.6
2023-10-09T00:50:05.949Z,96.5
2023-10-09T00:51:01.641Z,96.0
2023-10-09T00:52:01.573Z,96.5
2023-10-09T00:53:02.708Z,96.9
2023-10-09T00:54:02.853Z,97.3
2023-10-09T00:55:02.750Z,97.6
2023-10-09T00:56:04.185Z,98.1
2023-10-09T00:57:01.202Z,98.5
2023-10-09T00:58:01.898Z,99.3
2023-10-09T00:59:01.529Z,99.6
2023-10-09T01:00:01.226Z,100.0
2023-10-09T01:01:01.211Z,100.0
2023-10-09T01:02:01.239Z,100.0
2023-10-09T01:03:03.084Z,100.0
2023-10-09T01:04:01.937Z,100.0
2023-10-09T01:05:02.542Z,100.0
2023-10-09T01:06:03.022Z,100.0
2023-10-09T01:07:01.418Z,100.0
2023-10-09T01:08:01.171Z,100.0
2023-10-09T01:09:01.563Z,100.0
2023-10-09T01:10:01.174Z,100.0
2023-10-09T01:11:01.436Z,100.0
2023-10-09T01:12:01.170Z,100.0
2023-10-09T01:13:01.320Z,100.0
2023-10-09T01:14:01.113Z,100.0
2023-10-09T01:15:01.557Z,100.0
2023-10-09T01:16:05.366Z,100.0
2023-10-09T01:17:01.197Z,100.0
2023-10-09T01:18:03.327Z,100.0
2023-10-09T01:19:01.494Z,100.0
2023-10-09T01:20:01.547Z,100.0
2023-10-09T01:21:01.137Z,100.0
2023-10-09T01:22:01.800Z,100.0
2023-10-09T01:23:01.843Z,100.0
2023-10-09T01:24:01.195Z,100.0
2023-10-09T01:25:01.173Z,100.0
2023-10-09T01:26:01.450Z,100.0
2023-10-09T01:27:01.597Z,100.0
2023-10-09T01:28:01.173Z,100.0
2023-10-09T01:29:01.740Z,100.0
2023-10-09T01:30:01.735Z,100.0
2023-10-09T01:31:01.202Z,100.0
2023-10-09T01:32:01.656Z,100.0
2023-10-09T01:33:01.575Z,100.0
2023-10-09T01:34:01.233Z,100.0
2023-10-09T01:35:01.136Z,100.0
2023-10-09T01:36:01.202Z,100.0
2023-10-09T01:37:02.037Z,100.0
2023-10-09T01:38:01.186Z,100.0
2023-10-09T01:39:01.931Z,100.0
2023-10-09T01:40:01.375Z,100.0
2023-10-09T01:41:01.185Z,100.0
2023-10-09T01:42:01.199Z,100.0
2023-10-09T01:43:01.633Z,100.0
2023-10-09T01:44:01.168Z,100.0
2023-10-09T01:45:01.893Z,100.0
2023-10-09T01:46:01.669Z,100.0
2023-10-09T01:47:01.617Z,100.0
2023-10-09T01:48:01.206Z,99.4
2023-10-09T01:49:01.497Z,99.8
2023-10-09T01:50:01.523Z,100.0
2023-10-09T01:51:01.345Z,100.0
2023-10-09T01:52:01.173Z,100.0
2023-10-09T01:53:01.465Z,100.0
2023-10-09T01:54:01.188Z,100.0
2023-10-09T01:55:01.449Z,100.0
2023-10-09T01:56:09.496Z,100.0
2023-10-09T01:57:01.165Z,100.0
2023-10-09T01:58:01.467Z,100.0
2023-10-09T01:59:01.123Z,100.0
2023-10-09T02:00:01.195Z,100.0
2023-10-09T02:01:01.505Z,100.0
2023-10-09T02:02:01.637Z,100.0
2023-10-09T02:03:01.772Z,100.0
2023-10-09T02:04:01.267Z,100.0
2023-10-09T02:05:04.623Z,100.0
2023-10-09T02:06:01.716Z,100.0
2023-10-09T02:07:01.128Z,100.0
2023-10-09T02:08:01.455Z,100.0
2023-10-09T02:09:01.143Z,100.0
2023-10-09T02:10:01.132Z,100.0
2023-10-09T02:11:02.084Z,100.0
2023-10-09T02:12:01.664Z,100.0
2023-10-09T02:13:02.576Z,100.0
2023-10-09T02:14:01.496Z,100.0
2023-10-09T02:15:01.533Z,100.0
2023-10-09T02:16:01.770Z,100.0
2023-10-09T02:17:01.490Z,100.0
2023-10-09T02:18:01.215Z,100.0
2023-10-09T02:19:01.117Z,100.0
2023-10-09T02:20:01.115Z,100.0
2023-10-09T02:21:08.448Z,100.0
2023-10-09T02:22:02.125Z,100.0
2023-10-09T02:23:01.110Z,100.0
2023-10-09T02:24:02.461Z,100.0
2023-10-09T02:25:01.299Z,100.0
2023-10-09T02:26:01.534Z,100.0
2023-10-09T02:27:01.279Z,100.0
2023-10-09T02:28:01.531Z,100.0
2023-10-09T02:29:01.703Z,100.0
2023-10-09T02:30:01.226Z,100.0
2023-10-09T02:31:09.600Z,100.0
2023-10-09T02:32:01.153Z,100.0
2023-10-09T02:33:01.267Z,100.0
2023-10-09T02:34:01.644Z,100.0
2023-10-09T02:35:01.555Z,100.0
2023-10-09T02:36:01.505Z,100.0
2023-10-09T02:37:01.172Z,100.0
2023-10-09T02:38:01.500Z,100.0
2023-10-09T02:39:01.181Z,100.0
2023-10-09T02:40:01.138Z,100.0
2023-10-09T02:41:01.862Z,100.0
2023-10-09T02:42:01.215Z,100.0
2023-10-09T02:43:01.111Z,100.0
2023-10-09T02:44:01.457Z,100.0
2023-10-09T02:45:01.558Z,100.0
2023-10-09T02:46:01.889Z,100.0
2023-10-09T02:47:01.204Z,100.0
2023-10-09T02:48:01.581Z,100.0
2023-10-09T02:49:02.486Z,100.0
2023-10-09T02:50:01.191Z,100.0
2023-10-09T02:51:01.168Z,100.0
2023-10-09T02:52:01.174Z,100.0
2023-10-09T02:53:01.130Z,100.0
2023-10-09T02:54:03.125Z,100.0
2023-10-09T02:55:01.503Z,100.0
2023-10-09T02:56:01.477Z,100.0
2023-10-09T02:57:01.809Z,100.0
2023-10-09T02:58:01.182Z,100.0
2023-10-09T02:59:01.100Z,100.0
2023-10-09T03:00:01.127Z,100.0
2023-10-09T03:01:01.163Z,99.8
2023-10-09T03:02:01.169Z,99.9
2023-10-09T03:03:01.571Z,100.0
2023-10-09T03:04:01.611Z,100.0
2023-10-09T03:05:01.167Z,100.0
2023-10-09T03:06:02.246Z,100.0
2023-10-09T03:07:01.579Z,100.0
2023-10-09T03:08:01.432Z,99.8
2023-10-09T03:09:01.848Z,100.0
2023-10-09T03:10:01.168Z,100.0
2023-10-09T03:11:01.165Z,100.0
2023-10-09T03:12:03.476Z,100.0
2023-10-09T03:13:01.579Z,98.8
2023-10-09T03:14:01.525Z,98.1
2023-10-09T03:15:02.126Z,98.4
2023-10-09T03:16:01.161Z,98.2
2023-10-09T03:17:02.050Z,98.5
2023-10-09T03:18:01.974Z,98.0
2023-10-09T03:19:01.418Z,97.7
2023-10-09T03:20:03.597Z,98.1
2023-10-09T03:21:01.466Z,97.8
2023-10-09T03:22:01.182Z,97.7
2023-10-09T03:23:01.133Z,97.7
2023-10-09T03:24:01.283Z,97.6
2023-10-09T03:25:01.127Z,97.8
2023-10-09T03:26:14.977Z,97.5
2023-10-09T03:27:01.521Z,97.0
2023-10-09T03:28:01.531Z,97.2
2023-10-09T03:29:01.126Z,97.4
2023-10-09T03:30:01.441Z,97.6
2023-10-09T03:31:01.496Z,97.5
2023-10-09T03:32:01.170Z,96.7
2023-10-09T03:33:01.222Z,97.3
2023-10-09T03:34:01.173Z,97.3
2023-10-09T03:35:01.175Z,96.6
2023-10-09T03:36:01.221Z,96.5
2023-10-09T03:37:01.434Z,97.0
2023-10-09T03:38:01.406Z,97.1
2023-10-09T03:39:01.139Z,97.4
2023-10-09T03:40:01.426Z,97.4
2023-10-09T03:41:02.381Z,97.6
2023-10-09T03:42:01.529Z,97.6
2023-10-09T03:43:01.116Z,97.7
2023-10-09T03:44:01.167Z,97.9
2023-10-09T03:45:01.490Z,98.3
2023-10-09T03:46:01.501Z,99.1
2023-10-09T03:47:01.569Z,98.9
2023-10-09T03:48:01.681Z,98.4
2023-10-09T03:49:01.501Z,98.9
2023-10-09T03:50:01.472Z,99.4
2023-10-09T03:51:01.221Z,100.0
2023-10-09T03:52:01.488Z,100.0
2023-10-09T03:53:02.805Z,100.0
2023-10-09T03:54:01.280Z,100.0
2023-10-09T03:55:01.488Z,100.0
2023-10-09T03:56:01.192Z,100.0
2023-10-09T03:57:01.850Z,100.0
2023-10-09T03:58:01.450Z,100.0
2023-10-09T03:59:01.556Z,100.0
2023-10-09T04:00:01.365Z,100.0
2023-10-09T04:01:07.846Z,100.0
2023-10-09T04:02:01.191Z,100.0
2023-10-09T04:03:01.856Z,100.0
2023-10-09T04:04:01.961Z,100.0
2023-10-09T04:05:01.188Z,100.0
2023-10-09T04:06:01.213Z,100.0
2023-10-09T04:07:01.463Z,100.0
2023-10-09T04:08:01.469Z,100.0
2023-10-09T04:09:02.828Z,100.0
2023-10-09T04:10:01.535Z,100.0
2023-10-09T04:11:01.527Z,100.0
2023-10-09T04:12:01.149Z,100.0
2023-10-09T04:13:01.112Z,100.0
2023-10-09T04:14:01.423Z,100.0
2023-10-09T04:15:01.575Z,100.0
2023-10-09T04:16:02.057Z,100.0
2023-10-09T04:17:01.447Z,100.0
2023-10-09T04:18:01.201Z,100.0
2023-10-09T04:19:01.749Z,100.0
2023-10-09T04:20:01.942Z,100.0
2023-10-09T04:21:01.163Z,100.0
2023-10-09T04:22:01.173Z,100.0
2023-10-09T04:23:03.140Z,100.0
2023-10-09T04:24:02.406Z,100.0
2023-10-09T04:25:01.216Z,100.0
2023-10-09T04:26:01.574Z,100.0
2023-10-09T04:27:01.243Z,100.0
2023-10-09T04:28:01.532Z,100.0
2023-10-09T04:29:01.162Z,100.0
2023-10-09T04:30:01.165Z,100.0
2023-10-09T04:31:01.184Z,100.0
2023-10-09T04:32:01.117Z,100.0
2023-10-09T04:33:01.617Z,100.0
2023-10-09T04:34:03.050Z,100.0
2023-10-09T04:35:01.675Z,100.0
2023-10-09T04:36:03.623Z,100.0
2023-10-09T04:37:01.480Z,100.0
2023-10-09T04:38:01.120Z,100.0
2023-10-09T04:39:01.195Z,100.0
2023-10-09T04:40:01.146Z,100.0
2023-10-09T04:41:01.127Z,100.0
2023-10-09T04:42:01.525Z,100.0
2023-10-09T04:43:01.165Z,100.0
2023-10-09T04:44:01.445Z,100.0
2023-10-09T04:45:01.167Z,100.0
2023-10-09T04:46:01.147Z,100.0
2023-10-09T04:47:01.869Z,100.0
2023-10-09T04:48:01.523Z,100.0
2023-10-09T04:49:01.106Z,100.0
2023-10-09T04:50:01.143Z,100.0
2023-10-09T04:51:01.221Z,100.0
2023-10-09T04:52:01.149Z,100.0
2023-10-09T04:53:01.610Z,100.0
2023-10-09T04:54:02.034Z,100.0
2023-10-09T04:55:01.597Z,100.0
2023-10-09T04:56:01.428Z,100.0
2023-10-09T04:57:01.175Z,100.0
2023-10-09T04:58:02.417Z,100.0
2023-10-09T04:59:01.175Z,100.0
2023-10-09T05:00:01.208Z,100.0
2023-10-09T05:01:01.162Z,100.0
2023-10-09T05:02:01.200Z,100.0
2023-10-09T05:03:03.527Z,100.0
2023-10-09T05:04:01.178Z,100.0
2023-10-09T05:05:01.524Z,100.0
2023-10-09T05:06:01.267Z,100.0
2023-10-09T05:07:01.121Z,100.0
2023-10-09T05:08:01.485Z,100.0
2023-10-09T05:09:01.318Z,100.0
2023-10-09T05:10:01.268Z,100.0
2023-10-09T05:11:03.239Z,100.0
2023-10-09T05:12:01.223Z,100.0
2023-10-09T05:13:01.163Z,100.0
2023-10-09T05:14:01.855Z,100.0
2023-10-09T05:15:01.502Z,100.0
2023-10-09T05:16:01.247Z,100.0
2023-10-09T05:17:01.170Z,100.0
2023-10-09T05:18:01.282Z,100.0
2023-10-09T05:19:01.123Z,100.0
2023-10-09T05:20:01.355Z,100.0
2023-10-09T05:21:01.566Z,100.0
2023-10-09T05:22:01.105Z,100.0
2023-10-09T05:23:01.113Z,100.0
2023-10-09T05:24:03.494Z,100.0
2023-10-09T05:25:01.476Z,100.0
2023-10-09T05:26:01.163Z,100.0
2023-10-09T05:27:01.226Z,100.0
2023-10-09T05:28:01.163Z,100.0
2023-10-09T05:29:01.430Z,100.0
2023-10-09T05:30:01.569Z,100.0
2023-10-09T05:31:01.982Z,100.0
2023-10-09T05:32:02.820Z,100.0
2023-10-09T05:33:01.649Z,100.0
2023-10-09T05:34:01.207Z,100.0
2023-10-09T05:35:02.099Z,100.0
2023-10-09T05:36:03.270Z,100.0
2023-10-09T05:37:02.498Z,100.0
2023-10-09T05:38:01.160Z,100.0
2023-10-09T05:39:02.303Z,100.0
2023-10-09T05:40:02.490Z,100.0
2023-10-09T05:41:01.578Z,100.0
2023-10-09T05:42:01.600Z,100.0
2023-10-09T05:43:01.172Z,100.0
2023-10-09T05:44:01.114Z,100.0
2023-10-09T05:45:01.147Z,100.0
2023-10-09T05:46:01.377Z,100.0
2023-10-09T05:47:01.605Z,100.0
2023-10-09T05:48:01.629Z,100.0
2023-10-09T05:49:01.470Z,100.0
2023-10-09T05:50:01.505Z,100.0
2023-10-09T05:51:01.190Z,100.0
2023-10-09T05:52:01.111Z,100.0
2023-10-09T05:53:02.510Z,100.0
2023-10-09T05:54:01.558Z,100.0
2023-10-09T05:55:01.488Z,100.0
2023-10-09T05:56:01.162Z,100.0
2023-10-09T05:57:01.234Z,100.0
2023-10-09T05:58:01.163Z,100.0
2023-10-09T05:59:01.135Z,100.0
2023-10-09T06:00:01.135Z,100.0
2023-10-09T06:01:01.695Z,100.0
2023-10-09T06:02:01.173Z,100.0
2023-10-09T06:03:02.631Z,100.0
2023-10-09T06:04:01.499Z,100.0
2023-10-09T06:05:01.256Z,100.0
2023-10-09T06:06:01.308Z,100.0
2023-10-09T06:07:01.527Z,100.0
2023-10-09T06:08:01.746Z,100.0
2023-10-09T06:09:02.768Z,100.0
2023-10-09T06:10:01.523Z,100.0
2023-10-09T06:11:01.164Z,100.0
2023-10-09T06:12:01.681Z,100.0
2023-10-09T06:13:01.238Z,100.0
2023-10-09T06:14:02.303Z,100.0
2023-10-09T06:15:01.993Z,100.0
2023-10-09T06:16:01.456Z,100.0
2023-10-09T06:17:01.174Z,100.0
2023-10-09T06:18:01.226Z,100.0
2023-10-09T06:19:01.235Z,100.0
2023-10-09T06:20:01.159Z,100.0
2023-10-09T06:21:01.599Z,100.0
2023-10-09T06:22:01.178Z,100.0
2023-10-09T06:23:01.761Z,100.0
2023-10-09T06:24:01.125Z,100.0
2023-10-09T06:25:01.542Z,100.0
2023-10-09T06:26:01.414Z,100.0
2023-10-09T06:27:01.185Z,100.0
2023-10-09T06:28:01.210Z,100.0
2023-10-09T06:29:01.491Z,100.0
2023-10-09T06:30:01.945Z,100.0
2023-10-09T06:31:01.502Z,100.0
2023-10-09T06:32:02.330Z,100.0
2023-10-09T06:33:01.522Z,100.0
2023-10-09T06:34:01.517Z,100.0
2023-10-09T06:35:02.724Z,100.0
2023-10-09T06:36:01.169Z,100.0
2023-10-09T06:37:01.869Z,100.0
2023-10-09T06:38:02.031Z,100.0
2023-10-09T06:39:01.173Z,100.0
2023-10-09T06:40:01.578Z,100.0
2023-10-09T06:41:01.129Z,100.0
2023-10-09T06:42:01.497Z,100.0
2023-10-09T06:43:01.183Z,100.0
2023-10-09T06:44:01.469Z,100.0
2023-10-09T06:45:01.619Z,100.0
2023-10-09T06:46:01.162Z,100.0
2023-10-09T06:47:01.159Z,100.0
2023-10-09T06:48:01.729Z,100.0
2023-10-09T06:49:01.509Z,100.0
2023-10-09T06:50:01.513Z,100.0
2023-10-09T06:51:03.840Z,100.0
2023-10-09T06:52:01.467Z,100.0
2023-10-09T06:53:01.478Z,100.0
2023-10-09T06:54:01.592Z,100.0
2023-10-09T06:55:01.114Z,100.0
2023-10-09T06:56:01.494Z,100.0
2023-10-09T06:57:01.168Z,100.0
2023-10-09T06:58:01.933Z,100.0
2023-10-09T06:59:02.820Z,100.0
2023-10-09T07:00:01.193Z,100.0
2023-10-09T07:01:03.834Z,100.0
2023-10-09T07:02:01.170Z,100.0
2023-10-09T07:03:01.486Z,100.0
2023-10-09T07:04:01.389Z,100.0
2023-10-09T07:05:01.168Z,100.0
2023-10-09T07:06:03.766Z,100.0
2023-10-09T07:07:01.495Z,100.0
2023-10-09T07:08:01.159Z,100.0
2023-10-09T07:09:01.917Z,100.0
2023-10-09T07:10:01.432Z,100.0
2023-10-09T07:11:01.678Z,100.0
2023-10-09T07:12:01.201Z,100.0
2023-10-09T07:13:01.172Z,100.0
2023-10-09T07:14:01.435Z,100.0
2023-10-09T07:15:01.581Z,100.0
2023-10-09T07:16:01.233Z,100.0
2023-10-09T07:17:03.053Z,100.0
2023-10-09T07:18:01.162Z,100.0
2023-10-09T07:19:01.448Z,100.0
2023-10-09T07:20:01.544Z,100.0
2023-10-09T07:21:01.228Z,100.0
2023-10-09T07:22:01.471Z,100.0
2023-10-09T07:23:01.588Z,100.0
2023-10-09T07:24:01.148Z,100.0
2023-10-09T07:25:01.107Z,100.0
2023-10-09T07:26:01.860Z,100.0
2023-10-09T07:27:01.161Z,100.0
2023-10-09T07:28:01.160Z,100.0
2023-10-09T07:29:01.216Z,100.0
2023-10-09T07:30:01.483Z,100.0
2023-10-09T07:31:01.210Z,100.0
2023-10-09T07:32:01.584Z,100.0
2023-10-09T07:33:03.423Z,100.0
2023-10-09T07:34:01.116Z,100.0
2023-10-09T07:35:01.240Z,100.0
2023-10-09T07:36:02.154Z,100.0
2023-10-09T07:37:01.508Z,100.0
2023-10-09T07:38:01.103Z,100.0
2023-10-09T07:39:02.238Z,100.0
2023-10-09T07:40:02.569Z,100.0
2023-10-09T07:41:02.628Z,100.0
2023-10-09T07:42:02.358Z,100.0
2023-10-09T07:43:01.572Z,100.0
2023-10-09T07:44:01.488Z,100.0
2023-10-09T07:45:01.793Z,100.0
2023-10-09T07:46:03.274Z,100.0
2023-10-09T07:47:03.410Z,100.0
2023-10-09T07:48:01.680Z,100.0
2023-10-09T07:49:02.932Z,100.0
2023-10-09T07:50:01.105Z,100.0
2023-10-09T07:51:01.133Z,100.0
2023-10-09T07:52:01.206Z,100.0
2023-10-09T07:53:01.186Z,100.0
2023-10-09T07:54:02.502Z,100.0
2023-10-09T07:55:01.614Z,100.0
2023-10-09T07:56:01.120Z,100.0
2023-10-09T07:57:01.195Z,100.0
2023-10-09T07:58:01.157Z,100.0
2023-10-09T07:59:01.169Z,100.0
2023-10-09T08:00:01.167Z,100.0
2023-10-09T08:01:01.532Z,100.0
2023-10-09T08:02:01.116Z,100.0
2023-10-09T08:03:02.283Z,100.0
2023-10-09T08:04:01.439Z,100.0
2023-10-09T08:05:02.175Z,100.0
2023-10-09T08:06:01.920Z,100.0
2023-10-09T08:08:01.485Z,100.0
2023-10-09T08:08:04.699Z,100.0
2023-10-09T08:09:01.180Z,100.0
2023-10-09T08:10:01.582Z,100.0
2023-10-09T08:11:01.480Z,100.0
2023-10-09T08:12:01.116Z,100.0
2023-10-09T08:13:02.091Z,100.0
2023-10-09T08:14:01.474Z,100.0
2023-10-09T08:15:02.146Z,100.0
2023-10-09T08:16:01.465Z,100.0
2023-10-09T08:17:01.478Z,100.0
2023-10-09T08:18:01.575Z,100.0
2023-10-09T08:19:01.109Z,100.0
2023-10-09T08:20:01.232Z,100.0
2023-10-09T08:21:02.872Z,100.0
2023-10-09T08:22:01.151Z,100.0
2023-10-09T08:23:01.176Z,100.0
2023-10-09T08:24:01.176Z,100.0
2023-10-09T08:25:01.110Z,100.0
2023-10-09T08:26:02.497Z,100.0
2023-10-09T08:27:01.232Z,100.0
2023-10-09T08:28:03.136Z,100.0
2023-10-09T08:29:01.195Z,100.0
2023-10-09T08:30:03.543Z,100.0
2023-10-09T08:31:01.198Z,100.0
2023-10-09T08:32:01.188Z,100.0
2023-10-09T08:35:02.141Z,100.0
2023-10-09T08:36:01.567Z,100.0
2023-10-09T08:37:01.257Z,100.0
2023-10-09T08:38:02.743Z,100.0
2023-10-09T08:39:01.163Z,100.0
2023-10-09T08:40:01.159Z,100.0
2023-10-09T08:41:09.882Z,100.0
2023-10-09T08:42:02.000Z,100.0
2023-10-09T08:43:10.044Z,100.0
2023-10-09T08:44:02.760Z,100.0
2023-10-09T08:45:04.815Z,100.0
2023-10-09T08:46:02.732Z,100.0
2023-10-09T08:47:02.561Z,100.0
2023-10-09T08:48:02.330Z,100.0
2023-10-09T08:49:01.804Z,100.0
2023-10-09T08:50:01.641Z,100.0
2023-10-09T08:51:01.692Z,100.0
2023-10-09T08:52:01.394Z,100.0
2023-10-09T08:53:01.683Z,100.0
2023-10-09T08:54:01.158Z,100.0
2023-10-09T08:55:01.117Z,100.0
2023-10-09T08:56:01.206Z,100.0
2023-10-09T08:57:01.664Z,100.0
2023-10-09T08:58:01.908Z,100.0
2023-10-09T08:59:01.538Z,100.0
2023-10-09T09:00:01.384Z,100.0
2023-10-09T09:01:01.549Z,100.0
2023-10-09T09:02:01.543Z,100.0
2023-10-09T09:03:01.150Z,100.0
2023-10-09T09:04:01.457Z,100.0
2023-10-09T09:05:17.152Z,100.0
2023-10-09T09:06:02.497Z,100.0
2023-10-09T09:07:01.474Z,100.0
2023-10-09T09:08:01.220Z,100.0
2023-10-09T09:09:10.558Z,100.0
2023-10-09T09:10:01.801Z,100.0
2023-10-09T09:11:03.756Z,100.0
2023-10-09T09:12:01.694Z,100.0
2023-10-09T09:13:03.891Z,100.0
2023-10-09T09:14:04.078Z,100.0
2023-10-09T09:15:01.530Z,100.0
2023-10-09T09:16:01.196Z,100.0
2023-10-09T09:17:01.277Z,100.0
2023-10-09T09:18:05.286Z,100.0
2023-10-09T09:19:03.248Z,100.0
2023-10-09T09:20:19.526Z,100.0
2023-10-09T09:21:01.135Z,100.0
2023-10-09T09:22:01.397Z,100.0
2023-10-09T09:23:04.645Z,100.0
2023-10-09T09:24:01.565Z,100.0
2023-10-09T09:25:01.555Z,100.0
2023-10-09T09:26:01.166Z,100.0
2023-10-09T09:27:03.505Z,100.0
2023-10-09T09:28:01.441Z,100.0
2023-10-09T09:29:01.158Z,100.0
2023-10-09T09:30:01.181Z,100.0
2023-10-09T09:31:08.199Z,100.0
2023-10-09T09:32:01.193Z,100.0
2023-10-09T09:33:19.516Z,100.0
2023-10-09T09:34:01.201Z,100.0
2023-10-09T09:35:02.738Z,100.0
2023-10-09T09:36:02.923Z,100.0
2023-10-09T09:37:01.159Z,100.0
2023-10-09T09:38:01.780Z,100.0
2023-10-09T09:39:01.532Z,100.0
2023-10-09T09:40:03.391Z,100.0
2023-10-09T09:41:01.949Z,100.0
2023-10-09T09:42:01.431Z,100.0
2023-10-09T09:43:02.769Z,100.0
2023-10-09T09:44:01.961Z,100.0
2023-10-09T09:45:01.806Z,100.0
2023-10-09T09:46:02.500Z,100.0
2023-10-09T09:47:02.380Z,100.0
2023-10-09T09:48:02.799Z,100.0
2023-10-09T09:49:02.733Z,100.0
2023-10-09T09:50:02.179Z,100.0
2023-10-09T09:51:01.443Z,100.0
2023-10-09T09:52:02.186Z,100.0
2023-10-09T09:53:01.198Z,100.0
2023-10-09T09:54:01.826Z,100.0
2023-10-09T09:55:02.253Z,100.0
2023-10-09T09:56:03.506Z,100.0
2023-10-09T09:57:02.993Z,100.0
2023-10-09T09:58:02.447Z,100.0
2023-10-09T09:59:03.369Z,100.0
2023-10-09T10:00:01.912Z,100.0
2023-10-09T10:01:04.963Z,100.0
2023-10-09T10:02:01.704Z,100.0
2023-10-09T10:03:07.636Z,100.0
2023-10-09T10:04:07.742Z,100.0
2023-10-09T10:05:05.771Z,100.0
2023-10-09T10:06:04.342Z,100.0
2023-10-09T10:07:02.541Z,100.0
2023-10-09T10:08:02.738Z,100.0
2023-10-09T10:09:01.924Z,100.0
2023-10-09T10:10:01.112Z,100.0
2023-10-09T10:11:01.628Z,100.0
2023-10-09T10:12:01.189Z,100.0
2023-10-09T10:13:01.781Z,100.0
2023-10-09T10:14:01.595Z,100.0
2023-10-09T10:15:01.135Z,100.0
2023-10-09T10:16:06.487Z,100.0
2023-10-09T10:17:04.266Z,100.0
2023-10-09T10:18:08.373Z,100.0
2023-10-09T10:19:02.833Z,100.0
2023-10-09T10:20:04.366Z,100.0
2023-10-09T10:21:12.342Z,100.0
2023-10-09T10:22:22.212Z,100.0
2023-10-09T10:23:15.438Z,100.0
2023-10-09T10:24:02.009Z,100.0
2023-10-09T10:25:01.128Z,100.0
2023-10-09T10:26:18.832Z,100.0
2023-10-09T10:27:15.755Z,100.0
2023-10-09T10:28:16.184Z,100.0
2023-10-09T10:29:14.425Z,100.0
2023-10-09T10:30:22.218Z,100.0
2023-10-09T10:31:01.375Z,100.0
2023-10-09T10:32:02.986Z,100.0
2023-10-09T10:33:02.156Z,100.0
2023-10-09T10:34:04.628Z,100.0
2023-10-09T10:35:01.522Z,100.0
2023-10-09T10:36:01.125Z,100.0
2023-10-09T10:37:01.171Z,100.0
2023-10-09T10:38:02.129Z,100.0
2023-10-09T10:39:01.921Z,100.0
2023-10-09T10:40:01.548Z,100.0
2023-10-09T10:41:12.834Z,100.0
2023-10-09T10:42:01.113Z,100.0
2023-10-09T10:43:01.521Z,100.0
2023-10-09T10:44:01.701Z,100.0
2023-10-09T10:45:01.812Z,100.0
2023-10-09T10:46:02.670Z,100.0
2023-10-09T10:47:01.239Z,100.0
2023-10-09T10:48:01.352Z,100.0
2023-10-09T10:49:02.537Z,100.0
2023-10-09T10:50:02.978Z,100.0
2023-10-09T10:51:01.605Z,100.0
2023-10-09T10:52:01.199Z,100.0
2023-10-09T10:53:12.103Z,100.0
2023-10-09T10:54:02.478Z,100.0
2023-10-09T10:55:08.644Z,100.0
2023-10-09T10:56:02.311Z,100.0
2023-10-09T10:57:01.552Z,100.0
2023-10-09T10:58:01.616Z,100.0
2023-10-09T10:59:01.730Z,100.0
2023-10-09T11:00:01.681Z,100.0
2023-10-09T11:01:01.345Z,100.0
2023-10-09T11:02:01.328Z,100.0
2023-10-09T11:03:01.782Z,100.0
2023-10-09T11:04:11.650Z,100.0
2023-10-09T11:05:01.860Z,100.0
2023-10-09T11:06:02.390Z,100.0
2023-10-09T11:07:04.864Z,100.0
2023-10-09T11:08:10.088Z,100.0
2023-10-09T11:09:01.845Z,100.0
2023-10-09T11:10:01.403Z,100.0
2023-10-09T11:11:12.244Z,100.0
2023-10-09T11:12:05.639Z,100.0
2023-10-09T11:13:01.514Z,100.0
2023-10-09T11:14:09.146Z,100.0
2023-10-09T11:15:01.495Z,100.0
2023-10-09T11:16:01.862Z,100.0
2023-10-09T11:17:01.514Z,100.0
2023-10-09T11:18:02.072Z,100.0
2023-10-09T11:19:01.507Z,100.0
2023-10-09T11:20:03.028Z,100.0
2023-10-09T11:21:01.258Z,100.0
2023-10-09T11:22:02.309Z,100.0
2023-10-09T11:23:01.742Z,100.0
2023-10-09T11:24:01.849Z,100.0
2023-10-09T11:25:02.023Z,100.0
2023-10-09T11:26:03.238Z,100.0
2023-10-09T11:27:02.315Z,100.0
2023-10-09T11:28:01.553Z,100.0
2023-10-09T11:29:09.877Z,100.0
2023-10-09T11:30:01.169Z,100.0
2023-10-09T11:31:09.716Z,100.0
2023-10-09T11:32:03.341Z,100.0
2023-10-09T11:33:04.727Z,100.0
2023-10-09T11:34:01.476Z,100.0
2023-10-09T11:35:12.856Z,100.0
2023-10-09T11:36:01.146Z,100.0
2023-10-09T11:37:03.557Z,100.0
2023-10-09T11:38:01.555Z,100.0
2023-10-09T11:39:02.560Z,100.0
2023-10-09T11:40:01.493Z,100.0
2023-10-09T11:41:12.191Z,100.0
2023-10-09T11:42:02.921Z,100.0
2023-10-09T11:43:01.944Z,100.0
2023-10-09T11:44:01.377Z,100.0
2023-10-09T11:45:02.389Z,100.0
2023-10-09T11:46:08.914Z,100.0
2023-10-09T11:47:02.225Z,100.0
2023-10-09T11:48:17.498Z,100.0
2023-10-09T11:49:04.298Z,100.0
2023-10-09T11:50:01.853Z,100.0
2023-10-09T11:51:01.519Z,100.0
2023-10-09T11:52:06.493Z,100.0
2023-10-09T11:53:01.554Z,100.0
2023-10-09T11:54:01.193Z,100.0
2023-10-09T11:55:01.851Z,100.0
2023-10-09T11:56:02.476Z,100.0
2023-10-09T11:57:01.273Z,100.0
2023-10-09T11:58:01.188Z,100.0
2023-10-09T11:59:01.187Z,100.0
2023-10-09T12:00:04.521Z,100.0
2023-10-09T12:01:11.093Z,100.0
2023-10-09T12:02:01.590Z,100.0
2023-10-09T12:03:01.162Z,100.0
2023-10-09T12:04:01.626Z,100.0
2023-10-09T12:05:01.571Z,100.0
2023-10-09T12:06:03.143Z,100.0
2023-10-09T12:07:02.089Z,100.0
2023-10-09T12:08:02.885Z,100.0
2023-10-09T12:09:01.122Z,100.0
2023-10-09T12:10:01.174Z,100.0
2023-10-09T12:11:04.335Z,100.0
2023-10-09T12:12:04.525Z,100.0
2023-10-09T12:13:01.120Z,100.0
2023-10-09T12:14:01.198Z,100.0
2023-10-09T12:15:01.122Z,100.0
2023-10-09T12:16:01.534Z,100.0
2023-10-09T12:17:02.180Z,100.0
2023-10-09T12:18:01.198Z,100.0
2023-10-09T12:19:01.121Z,100.0
2023-10-09T12:20:01.505Z,100.0
2023-10-09T12:21:01.462Z,100.0
2023-10-09T12:22:01.572Z,100.0
2023-10-09T12:23:02.664Z,100.0
2023-10-09T12:24:02.866Z,100.0
2023-10-09T12:25:01.112Z,100.0
2023-10-09T12:26:01.969Z,100.0
2023-10-09T12:27:01.561Z,100.0
2023-10-09T12:28:03.020Z,100.0
2023-10-09T12:29:01.235Z,100.0
2023-10-09T12:30:01.473Z,100.0
2023-10-09T12:31:01.114Z,100.0
2023-10-09T12:32:01.511Z,100.0
2023-10-09T12:33:01.236Z,100.0
2023-10-09T12:34:01.151Z,100.0
2023-10-09T12:35:01.153Z,100.0
2023-10-09T12:36:02.134Z,100.0
2023-10-09T12:37:01.534Z,100.0
2023-10-09T12:38:01.355Z,100.0
2023-10-09T12:39:01.338Z,100.0
2023-10-09T12:40:01.179Z,100.0
2023-10-09T12:41:03.016Z,100.0
2023-10-09T12:42:01.159Z,99.9
2023-10-09T12:43:01.171Z,100.0
2023-10-09T12:44:01.221Z,98.1
2023-10-09T12:45:01.598Z,96.5
2023-10-09T12:46:05.778Z,95.5
2023-10-09T12:47:01.157Z,96.2
2023-10-09T12:48:01.588Z,94.5
2023-10-09T12:49:01.114Z,92.5
2023-10-09T12:50:02.204Z,93.2
2023-10-09T12:51:01.154Z,92.9
2023-10-09T12:52:01.580Z,91.9
2023-10-09T12:53:01.903Z,90.1
2023-10-09T12:54:01.521Z,90.5
2023-10-09T12:55:01.507Z,88.4
2023-10-09T12:56:01.538Z,87.8
2023-10-09T12:57:01.501Z,86.4
2023-10-09T12:58:02.279Z,86.2